Time;durP1;ratioP1;P1;durP2;ratioP2;P2;SDS_P1;SDS_P2;PMS_P1;PMS_P2;Temp;Humidity;BMP_temperature;BMP_pressure;BME280_temperature;BME280_humidity;BME280_pressure;Samples;Min_cycle;Max_cycle;Signal;HPM_P1;HPM_P2
2022/09/29 00:00:34;;;;;;;8.63;7.07;;;;;;;12.39;58.33;99883.03;5050869;28;20120;-69
2022/09/29 00:03:00;;;;;;;8.05;6.35;;;;;;;12.36;58.34;99878.78;5050734;28;20075;-68
2022/09/29 00:05:29;;;;;;;7.60;6.78;;;;;;;12.33;58.35;99879.06;5051108;28;20050;-68
2022/09/29 00:07:55;;;;;;;10.48;7.47;;;;;;;12.33;58.27;99878.22;5050880;28;20040;-69
2022/09/29 00:10:22;;;;;;;9.05;6.63;;;;;;;12.33;58.50;99875.53;5050675;28;20041;-68
2022/09/29 00:12:49;;;;;;;7.53;6.40;;;;;;;12.34;58.62;99877.22;5050703;28;20098;-67
2022/09/29 00:15:16;;;;;;;7.50;6.25;;;;;;;12.34;58.40;99874.53;5050904;28;20044;-68
2022/09/29 00:17:42;;;;;;;8.38;6.47;;;;;;;12.32;58.32;99873.81;5050850;28;20041;-70
2022/09/29 00:20:31;;;;;;;8.32;6.97;;;;;;;12.33;58.55;99876.38;5050837;28;20081;-68
2022/09/29 00:22:57;;;;;;;7.70;6.80;;;;;;;12.32;58.63;99873.81;5050648;28;20102;-69
2022/09/29 00:25:24;;;;;;;9.07;6.95;;;;;;;12.30;58.54;99867.72;5050616;28;20122;-69
2022/09/29 00:27:50;;;;;;;7.55;6.80;;;;;;;12.27;58.36;99868.88;5050981;28;20483;-70
2022/09/29 00:30:17;;;;;;;7.43;6.65;;;;;;;12.25;58.48;99870.00;5050550;28;20037;-69
2022/09/29 00:32:44;;;;;;;11.23;7.30;;;;;;;12.23;58.59;99872.00;5051100;28;20195;-69
2022/09/29 00:35:11;;;;;;;8.30;6.90;;;;;;;12.21;58.41;99869.44;5050567;28;20048;-68
2022/09/29 00:37:38;;;;;;;8.13;7.05;;;;;;;12.17;58.60;99869.88;5054274;28;20497;-69
2022/09/29 00:40:06;;;;;;;7.93;7.13;;;;;;;12.15;58.54;99863.78;5054630;28;20033;-68
2022/09/29 00:42:33;;;;;;;8.15;7.25;;;;;;;12.13;58.38;99871.16;5054311;28;20466;-69
2022/09/29 00:45:21;;;;;;;9.30;7.18;;;;;;;12.07;58.50;99869.88;5053240;28;20044;-69
2022/09/29 00:47:55;;;;;;;9.43;6.88;;;;;;;12.05;58.38;99869.19;5054375;28;20053;-68
2022/09/29 00:50:32;;;;;;;7.20;6.25;;;;;;;12.02;58.42;99867.63;5054720;28;20103;-68
2022/09/29 00:53:02;;;;;;;7.60;6.65;;;;;;;12.00;58.39;99866.91;5054073;28;20487;-68
2022/09/29 00:55:35;;;;;;;8.15;6.65;;;;;;;11.96;58.34;99862.81;5054352;28;20056;-69
2022/09/29 00:58:12;;;;;;;7.57;6.32;;;;;;;11.94;58.49;99862.09;5054400;28;20074;-67
2022/09/29 01:00:39;;;;;;;8.32;6.72;;;;;;;11.93;58.51;99865.78;5054308;28;20053;-68
2022/09/29 01:03:16;;;;;;;7.60;6.25;;;;;;;11.92;58.44;99866.78;5053986;28;20049;-68
2022/09/29 01:05:48;;;;;;;8.13;6.53;;;;;;;11.92;58.63;99863.22;5053835;28;20056;-68
2022/09/29 01:08:25;;;;;;;13.02;7.30;;;;;;;11.92;58.29;99855.16;5054041;28;20091;-68
2022/09/29 01:10:52;;;;;;;10.45;7.53;;;;;;;11.91;58.42;99859.69;5054149;28;20045;-68
2022/09/29 01:13:21;;;;;;;9.38;7.30;;;;;;;11.89;58.17;99863.47;5053829;28;20075;-68
2022/09/29 01:15:47;;;;;;;39.63;11.27;;;;;;;11.86;58.30;99858.38;5053655;28;20294;-68
2022/09/29 01:18:14;;;;;;;8.73;7.40;;;;;;;11.82;58.30;99857.81;5053546;28;20037;-68
2022/09/29 01:20:51;;;;;;;7.68;6.88;;;;;;;11.78;58.32;99859.09;5053823;28;20041;-67
2022/09/29 01:24:11;;;;;;;8.82;7.68;;;;;;;11.74;58.39;99863.03;5053735;28;20115;-69
2022/09/29 01:27:09;;;;;;;9.25;7.20;;;;;;;11.71;58.45;99860.63;5053632;28;20048;-68
2022/09/29 01:29:56;;;;;;;8.32;7.13;;;;;;;11.67;58.43;99864.56;5053695;28;20564;-68
2022/09/29 01:32:59;;;;;;;10.50;7.22;;;;;;;11.61;58.40;99865.97;5053737;28;20560;-69
2022/09/29 01:35:36;;;;;;;7.95;6.57;;;;;;;11.56;58.31;99870.94;5033649;28;20041;-68
2022/09/29 01:38:21;;;;;;;10.20;5.68;;;;;;;11.52;58.43;99871.34;5033718;28;20041;-68
2022/09/29 01:41:23;;;;;;;7.82;6.03;;;;;;;11.49;58.61;99866.25;5033528;28;20080;-69
2022/09/29 01:44:34;;;;;;;6.65;5.63;;;;;;;11.46;58.57;99873.59;5031792;28;20151;-68
2022/09/29 01:47:09;;;;;;;10.57;6.93;;;;;;;11.44;58.75;99874.72;5049496;28;20053;-68
2022/09/29 01:49:39;;;;;;;;;;;;;;;11.38;58.57;99873.44;5053940;28;20049;-69
2022/09/29 01:52:10;;;;;;;6.68;5.78;;;;;;;11.40;58.51;99871.47;5052798;28;19924;-68
2022/09/29 01:54:47;;;;;;;8.50;6.88;;;;;;;11.36;58.50;99875.41;5053348;28;20453;-69
2022/09/29 01:57:21;;;;;;;7.47;6.13;;;;;;;11.35;58.67;99878.25;5053278;28;20549;-69
2022/09/29 01:59:54;;;;;;;8.30;7.28;;;;;;;11.34;58.74;99881.91;5052618;28;20135;-69
2022/09/29 02:02:36;;;;;;;8.10;6.95;;;;;;;11.35;58.62;99878.25;5053051;28;20072;-68
2022/09/29 02:05:10;;;;;;;9.75;7.80;;;;;;;11.34;58.68;99882.75;5053300;28;20524;-69
2022/09/29 02:07:41;;;;;;;9.43;6.95;;;;;;;11.36;58.82;99878.09;5053072;28;20033;-68
2022/09/29 02:10:32;;;;;;;9.68;7.15;;;;;;;11.38;58.73;99878.81;5052439;28;20048;-69
2022/09/29 02:13:01;;;;;;;8.02;6.93;;;;;;;11.39;58.86;99882.34;5053674;28;20052;-69
2022/09/29 02:15:37;;;;;;;7.97;7.13;;;;;;;11.38;58.76;99875.28;5054369;28;20403;-69
2022/09/29 02:18:15;;;;;;;9.88;6.47;;;;;;;11.38;58.65;99880.66;5053129;28;20103;-69
2022/09/29 02:20:42;;;;;;;8.55;6.90;;;;;;;11.37;58.76;99881.63;5052993;28;20041;-68
2022/09/29 02:23:08;;;;;;;9.43;7.05;;;;;;;11.35;58.61;99884.47;5052464;28;20052;-68
2022/09/29 02:25:38;;;;;;;8.18;7.38;;;;;;;11.33;58.65;99886.44;5052641;28;20045;-68
2022/09/29 02:28:06;;;;;;;8.65;7.30;;;;;;;11.30;58.73;99881.34;5052400;28;20045;-69
2022/09/29 02:30:34;;;;;;;8.20;7.25;;;;;;;11.30;58.40;99888.56;5052529;28;20087;-69
2022/09/29 02:33:01;;;;;;;8.32;7.40;;;;;;;11.28;58.32;99885.16;5052368;28;20037;-68
2022/09/29 02:35:54;;;;;;;9.68;7.47;;;;;;;11.25;58.70;99890.81;5052409;28;20507;-68
2022/09/29 02:38:34;;;;;;;8.65;7.03;;;;;;;11.20;58.45;99893.91;5052060;28;20033;-68
2022/09/29 02:41:14;;;;;;;8.43;7.13;;;;;;;11.19;58.32;99888.66;5052438;28;20041;-69
2022/09/29 02:44:13;;;;;;;10.73;7.38;;;;;;;11.12;58.37;99881.13;5052320;28;20041;-69
2022/09/29 02:46:55;;;;;;;8.00;6.95;;;;;;;11.11;58.45;99878.56;5052280;28;20505;-69
2022/09/29 02:49:36;;;;;;;7.63;6.82;;;;;;;11.10;58.56;99876.84;5052411;28;20453;-69
2022/09/29 02:52:25;;;;;;;7.45;6.68;;;;;;;11.09;58.63;99886.75;5052054;28;20053;-69
2022/09/29 02:55:06;;;;;;;6.50;5.70;;;;;;;11.08;58.41;99885.06;5051729;28;20041;-69
2022/09/29 02:57:36;;;;;;;7.55;5.70;;;;;;;11.08;58.63;99884.22;5052366;28;20037;-69
2022/09/29 03:00:16;;;;;;;16.33;6.13;;;;;;;11.06;58.56;99886.19;5051405;28;20061;-68
2022/09/29 03:02:43;;;;;;;7.15;5.75;;;;;;;11.02;58.27;99882.06;5051866;28;20041;-69
2022/09/29 03:05:28;;;;;;;9.13;6.05;;;;;;;10.96;58.44;99885.28;5051596;28;20045;-68
2022/09/29 03:07:55;;;;;;;12.60;6.07;;;;;;;10.91;58.14;99887.53;5052111;28;20095;-69
2022/09/29 03:10:21;;;;;;;7.07;6.35;;;;;;;10.81;58.29;99888.34;5051954;28;20091;-68
2022/09/29 03:12:52;;;;;;;6.10;5.50;;;;;;;10.77;58.18;99880.69;5051795;28;20578;-68
2022/09/29 03:15:23;;;;;;;6.20;5.15;;;;;;;10.76;58.34;99887.03;5051541;28;20043;-68
2022/09/29 03:17:53;;;;;;;6.28;5.68;;;;;;;10.74;58.46;99881.78;5051600;28;20048;-68
2022/09/29 03:20:20;;;;;;;7.85;5.70;;;;;;;10.71;58.64;99876.69;5051952;28;20563;-68
2022/09/29 03:22:46;;;;;;;6.82;5.95;;;;;;;10.68;58.50;99879.66;5051548;28;20555;-68
2022/09/29 03:25:14;;;;;;;8.77;7.07;;;;;;;10.68;58.39;99876.97;5051367;28;20041;-68
2022/09/29 03:27:41;;;;;;;8.63;7.57;;;;;;;10.67;58.34;99880.63;5051569;28;20037;-68
2022/09/29 03:30:11;;;;;;;11.07;7.72;;;;;;;10.62;58.58;99880.19;5051432;28;20037;-68
2022/09/29 03:32:37;;;;;;;8.77;6.97;;;;;;;10.56;58.48;99880.72;5051494;28;20091;-68
2022/09/29 03:35:04;;;;;;;9.23;7.82;;;;;;;10.54;58.67;99881.81;5050242;28;20075;-68
2022/09/29 03:37:31;;;;;;;9.85;7.30;;;;;;;10.53;58.46;99880.13;5051540;28;20048;-68
2022/09/29 03:39:57;;;;;;;12.23;8.30;;;;;;;10.53;58.77;99888.19;5051652;28;20044;-68
2022/09/29 03:42:25;;;;;;;11.35;8.43;;;;;;;10.52;58.75;99886.47;5051222;28;20044;-68
2022/09/29 03:44:52;;;;;;;12.02;9.18;;;;;;;10.50;58.71;99890.16;5050024;28;20053;-68
2022/09/29 03:47:18;;;;;;;10.18;8.60;;;;;;;10.50;58.77;99884.78;5051278;28;20106;-68
2022/09/29 03:49:45;;;;;;;9.93;8.50;;;;;;;10.51;58.83;99888.31;5051502;28;20045;-68
2022/09/29 03:52:11;;;;;;;10.43;8.40;;;;;;;10.54;58.80;99890.72;5050980;28;20049;-68
2022/09/29 03:54:42;;;;;;;9.25;7.70;;;;;;;10.55;58.87;99894.25;5051259;28;20048;-69
2022/09/29 03:57:08;;;;;;;8.70;7.72;;;;;;;10.56;58.79;99890.59;5050760;28;20041;-68
2022/09/29 03:59:35;;;;;;;9.10;7.90;;;;;;;10.56;58.80;99894.13;5049953;28;20037;-68
2022/09/29 04:02:02;;;;;;;9.55;8.60;;;;;;;10.56;58.59;99890.59;5051178;28;20106;-69
2022/09/29 04:04:33;;;;;;;9.85;8.38;;;;;;;10.54;58.53;99892.56;5050868;28;20033;-68
2022/09/29 04:07:00;;;;;;;11.85;9.40;;;;;;;10.53;58.69;99890.84;5051204;28;20052;-69
2022/09/29 04:09:26;;;;;;;10.30;9.00;;;;;;;10.51;58.61;99896.38;5051017;28;20033;-69
2022/09/29 04:11:53;;;;;;;12.00;9.65;;;;;;;10.50;58.83;99900.03;5053896;28;20083;-69
2022/09/29 04:14:22;;;;;;;11.02;8.82;;;;;;;10.48;58.66;99899.31;5055046;28;20408;-69
2022/09/29 04:16:49;;;;;;;12.40;10.48;;;;;;;10.48;58.87;99902.00;5054883;28;20095;-68
2022/09/29 04:19:16;;;;;;;12.13;9.55;;;;;;;10.48;58.99;99912.72;5055120;28;20041;-68
2022/09/29 04:21:42;;;;;;;12.38;10.35;;;;;;;10.48;58.78;99915.41;5054937;28;20454;-69
2022/09/29 04:24:10;;;;;;;10.85;8.88;;;;;;;10.48;58.93;99913.59;5054890;28;20037;-68
2022/09/29 04:26:36;;;;;;;11.48;9.88;;;;;;;10.46;58.90;99910.19;5054821;28;20134;-68
2022/09/29 04:29:03;;;;;;;12.07;9.50;;;;;;;10.45;58.59;99913.00;5055019;28;20094;-68
2022/09/29 04:31:29;;;;;;;11.60;9.10;;;;;;;10.44;58.66;99913.97;5054706;28;20048;-69
2022/09/29 04:33:57;;;;;;;11.35;9.48;;;;;;;10.42;58.89;99919.47;5054841;28;20044;-69
2022/09/29 04:36:24;;;;;;;12.25;9.63;;;;;;;10.44;58.98;99917.50;5054705;28;20056;-68
2022/09/29 04:38:51;;;;;;;12.82;9.77;;;;;;;10.45;59.00;99915.69;5054581;28;20041;-68
2022/09/29 04:41:17;;;;;;;11.90;10.27;;;;;;;10.46;58.85;99912.00;5054726;28;20368;-68
2022/09/29 04:43:48;;;;;;;11.40;9.85;;;;;;;10.45;58.68;99919.22;5054103;28;20041;-69
2022/09/29 04:46:15;;;;;;;12.88;9.25;;;;;;;10.45;58.73;99916.53;5054526;28;20344;-68
2022/09/29 04:48:42;;;;;;;11.48;8.45;;;;;;;10.44;58.60;99919.34;5054519;28;20637;-69
2022/09/29 04:51:09;;;;;;;11.30;9.02;;;;;;;10.42;58.86;99919.47;5054462;28;20040;-68
2022/09/29 04:53:41;;;;;;;9.52;7.78;;;;;;;10.40;58.73;99924.13;5054031;28;20041;-69
2022/09/29 04:56:08;;;;;;;10.35;7.97;;;;;;;10.39;58.72;99926.91;5054161;28;20118;-68
2022/09/29 04:58:35;;;;;;;11.85;7.75;;;;;;;10.38;58.66;99933.25;5053974;28;20063;-68
2022/09/29 05:01:12;;;;;;;9.43;8.18;;;;;;;10.34;58.61;99929.13;5054487;28;20087;-69
2022/09/29 05:03:43;;;;;;;9.50;7.72;;;;;;;10.32;58.56;99928.41;5053928;28;20048;-68
2022/09/29 05:06:10;;;;;;;10.23;8.57;;;;;;;10.31;58.58;99926.72;5054157;28;20044;-68
2022/09/29 05:08:36;;;;;;;8.63;7.25;;;;;;;10.30;58.78;99930.38;5054178;28;20037;-68
2022/09/29 05:11:05;;;;;;;9.00;7.30;;;;;;;10.29;58.63;99934.88;5053992;28;20041;-68
2022/09/29 05:13:31;;;;;;;7.63;6.80;;;;;;;10.29;58.66;99937.56;5053224;28;20407;-68
2022/09/29 05:15:58;;;;;;;9.90;7.00;;;;;;;10.28;58.59;99933.19;5052854;28;20049;-67
2022/09/29 05:18:24;;;;;;;7.93;7.13;;;;;;;10.29;58.66;99936.72;5053498;28;20568;-67
2022/09/29 05:20:52;;;;;;;9.40;7.50;;;;;;;10.29;58.73;99939.41;5053738;28;20506;-67
2022/09/29 05:23:41;;;;;;;8.75;7.68;;;;;;;10.29;58.66;99944.75;5053119;28;20068;-69
2022/09/29 05:26:09;;;;;;;7.68;6.88;;;;;;;10.25;58.54;99941.50;5053396;28;20102;-67
2022/09/29 05:28:37;;;;;;;11.50;8.60;;;;;;;10.22;58.27;99948.94;5048301;28;20505;-68
2022/09/29 05:31:06;;;;;;;9.82;7.93;;;;;;;10.14;58.51;99946.88;5053401;28;20083;-69
2022/09/29 05:33:34;;;;;;;10.75;7.82;;;;;;;10.05;58.48;99948.50;5052651;28;20640;-70
2022/09/29 05:36:06;;;;;;;11.00;7.97;;;;;;;10.00;58.48;99956.06;5053420;28;20053;-69
2022/09/29 05:38:34;;;;;;;9.43;8.35;;;;;;;9.97;58.54;99958.16;5053981;28;20041;-68
2022/09/29 05:41:05;;;;;;;12.57;8.93;;;;;;;9.96;58.56;99967.19;5052167;28;20052;-68
2022/09/29 05:43:32;;;;;;;10.82;9.00;;;;;;;9.94;58.58;99963.78;5052733;28;20107;-68
2022/09/29 05:46:01;;;;;;;12.65;8.77;;;;;;;9.91;58.62;99970.25;5053447;28;20106;-68
2022/09/29 05:48:31;;;;;;;11.88;8.63;;;;;;;9.90;58.65;99970.38;5053453;28;20446;-68
2022/09/29 05:50:59;;;;;;;9.45;8.13;;;;;;;9.89;58.53;99974.88;5053427;28;20467;-68
2022/09/29 05:53:25;;;;;;;11.20;9.70;;;;;;;9.88;58.56;99967.81;5052688;28;20045;-68
2022/09/29 05:55:52;;;;;;;10.80;9.23;;;;;;;9.88;58.54;99976.72;5053876;28;20433;-68
2022/09/29 05:58:19;;;;;;;10.85;9.63;;;;;;;9.88;58.76;99968.66;5053293;28;20069;-70
2022/09/29 06:00:45;;;;;;;13.10;9.18;;;;;;;9.89;58.80;99980.25;5053491;28;20037;-68
2022/09/29 06:03:12;;;;;;;11.60;10.27;;;;;;;9.88;58.69;99976.72;5052262;28;20044;-68
2022/09/29 06:05:39;;;;;;;10.50;9.13;;;;;;;9.89;58.60;99977.56;5052692;28;20099;-68
2022/09/29 06:08:06;;;;;;;12.45;10.05;;;;;;;9.88;58.60;99987.44;5053089;28;20103;-70
2022/09/29 06:10:33;;;;;;;12.20;9.90;;;;;;;9.87;58.82;99982.19;5052797;28;20098;-68
2022/09/29 06:13:02;;;;;;;10.80;9.55;;;;;;;9.89;58.98;99980.25;5052534;28;20037;-68
2022/09/29 06:15:28;;;;;;;11.88;10.00;;;;;;;9.91;58.89;99980.97;5053067;28;20057;-68
2022/09/29 06:17:59;;;;;;;12.77;9.38;;;;;;;9.93;58.88;99987.06;5051504;28;20106;-69
2022/09/29 06:20:26;;;;;;;12.13;9.88;;;;;;;9.94;59.05;99991.44;5052777;28;20556;-68
2022/09/29 06:22:54;;;;;;;14.18;10.45;;;;;;;9.98;59.18;99992.06;5052701;28;20106;-69
2022/09/29 06:25:21;;;;;;;12.75;10.40;;;;;;;10.01;59.07;100003.38;5052696;28;20040;-67
2022/09/29 06:27:48;;;;;;;13.48;10.73;;;;;;;10.05;59.06;99998.63;5052757;28;20029;-65
2022/09/29 06:30:14;;;;;;;12.50;10.52;;;;;;;10.08;59.26;100004.56;5052673;28;20037;-65
2022/09/29 06:32:41;;;;;;;12.98;10.65;;;;;;;10.11;59.20;100007.00;5051762;28;20045;-65
2022/09/29 06:37:57;;;;;;;13.65;10.73;;;;;;;10.18;59.27;100007.34;5032698;28;20512;-72
2022/09/29 06:40:26;;;;;;;12.43;10.60;;;;;;;10.22;59.31;100010.66;5031438;28;20037;-72
2022/09/29 06:42:53;;;;;;;14.57;11.73;;;;;;;10.24;59.31;100009.56;5032345;28;20127;-72
2022/09/29 06:45:21;;;;;;;15.88;12.27;;;;;;;10.25;59.31;100008.56;5031166;28;20053;-73
2022/09/29 06:47:48;;;;;;;16.27;13.20;;;;;;;10.26;59.28;100006.75;5032440;28;20041;-72
2022/09/29 06:50:14;;;;;;;14.75;13.07;;;;;;;10.29;59.34;100012.72;5032385;28;20041;-73
2022/09/29 06:52:49;;;;;;;17.60;13.95;;;;;;;10.36;59.41;100015.72;5032592;28;20052;-72
2022/09/29 06:55:30;;;;;;;17.08;13.77;;;;;;;10.46;59.75;100020.25;5032666;28;20087;-73
2022/09/29 06:57:56;;;;;;;16.85;13.50;;;;;;;10.58;59.94;100015.66;5032516;28;20155;-73
2022/09/29 07:00:30;;;;;;;17.40;13.25;;;;;;;10.73;60.37;100025.13;5032014;28;20423;-73
2022/09/29 07:02:56;;;;;;;18.17;14.20;;;;;;;10.90;60.35;100022.81;5032002;28;20038;-73
2022/09/29 07:05:23;;;;;;;17.15;13.32;;;;;;;11.06;60.67;100028.59;5030817;28;20064;-72
2022/09/29 07:07:50;;;;;;;19.48;12.68;;;;;;;11.25;60.85;100031.41;5032319;28;20447;-73
2022/09/29 07:10:20;;;;;;;14.77;12.13;;;;;;;11.47;60.95;100027.69;5032067;28;20045;-72
2022/09/29 07:12:46;;;;;;;16.55;13.45;;;;;;;11.63;60.87;100027.19;5031844;28;20041;-73
2022/09/29 07:15:13;;;;;;;19.13;12.90;;;;;;;11.83;60.62;100026.31;5030986;28;20033;-73
2022/09/29 07:17:40;;;;;;;16.20;13.32;;;;;;;12.03;60.54;100028.09;5030825;28;20430;-73
2022/09/29 07:20:08;;;;;;;15.52;12.25;;;;;;;12.24;60.78;100035.22;5032010;28;20475;-72
2022/09/29 07:22:34;;;;;;;15.90;12.40;;;;;;;12.46;60.71;100037.66;5031682;28;20068;-72
2022/09/29 07:25:03;;;;;;;19.15;12.77;;;;;;;12.69;60.56;100030.16;5031822;28;20045;-72
2022/09/29 07:27:29;;;;;;;14.07;11.93;;;;;;;12.93;60.57;100037.81;5031689;28;20447;-72
2022/09/29 07:29:56;;;;;;;15.90;11.60;;;;;;;13.15;60.37;100045.56;5031501;28;20454;-72
2022/09/29 07:32:31;;;;;;;14.32;12.48;;;;;;;13.32;59.93;100049.41;5031539;28;20034;-72
2022/09/29 07:34:58;;;;;;;16.25;12.18;;;;;;;13.53;59.95;100043.81;5031788;28;20046;-71
2022/09/29 07:37:29;;;;;;;18.67;11.57;;;;;;;13.68;59.35;100045.03;5031685;28;20095;-72
2022/09/29 07:39:56;;;;;;;17.45;11.80;;;;;;;13.82;59.81;100052.66;5031531;28;20554;-73
2022/09/29 07:42:22;;;;;;;15.57;12.63;;;;;;;13.99;59.42;100051.00;5031665;28;20050;-72
2022/09/29 07:44:55;;;;;;;14.63;12.18;;;;;;;14.15;59.06;100053.91;5031682;28;20045;-72
2022/09/29 07:47:22;;;;;;;15.90;11.95;;;;;;;14.26;58.86;100056.41;5031529;28;20045;-72
2022/09/29 07:49:49;;;;;;;14.65;11.05;;;;;;;14.36;58.79;100052.78;5031315;28;20049;-72
2022/09/29 07:52:15;;;;;;;14.57;11.48;;;;;;;14.48;58.61;100048.91;5029875;28;20042;-72
2022/09/29 07:54:43;;;;;;;16.55;11.50;;;;;;;14.64;58.55;100054.47;5031354;28;20045;-72
2022/09/29 07:57:10;;;;;;;14.52;11.73;;;;;;;14.81;58.71;100056.31;5031146;28;20139;-72
2022/09/29 07:59:37;;;;;;;14.30;11.88;;;;;;;15.00;58.58;100060.72;5031302;28;20060;-71
2022/09/29 08:02:12;;;;;;;13.48;11.43;;;;;;;15.22;58.59;100059.38;5031000;28;20045;-71
2022/09/29 08:04:42;;;;;;;16.15;11.85;;;;;;;15.38;58.04;100067.59;5031492;28;20107;-71
2022/09/29 08:07:09;;;;;;;18.00;12.38;;;;;;;15.54;57.78;100066.84;5030834;28;20069;-71
2022/09/29 08:09:36;;;;;;;14.70;12.07;;;;;;;15.63;57.54;100082.19;5031250;28;20095;-72
2022/09/29 08:12:07;;;;;;;18.05;11.40;;;;;;;15.72;57.58;100080.41;5030921;28;20617;-71
2022/09/29 08:14:37;;;;;;;13.65;10.30;;;;;;;15.81;57.33;100084.84;5031425;28;20113;-71
2022/09/29 08:17:09;;;;;;;;;;;;;;;15.84;57.36;100079.94;5031565;28;20042;-71
2022/09/29 08:19:36;;;;;;;13.77;11.13;;;;;;;15.93;57.48;100085.41;5035737;28;20000;-69
2022/09/29 08:22:02;;;;;;;14.20;11.82;;;;;;;16.00;57.29;100086.47;5050647;28;20384;-70
2022/09/29 08:24:30;;;;;;;17.67;10.93;;;;;;;16.08;57.05;100087.34;5051010;28;20106;-70
2022/09/29 08:26:56;;;;;;;18.73;11.45;;;;;;;16.24;57.45;100089.25;5050733;28;20052;-70
2022/09/29 08:29:36;;;;;;;15.00;11.02;;;;;;;16.32;56.96;100085.72;5049222;28;20087;-70
2022/09/29 08:32:11;;;;;;;15.27;10.98;;;;;;;16.38;56.61;100094.09;5050633;28;20065;-69
2022/09/29 08:34:39;;;;;;;15.23;10.90;;;;;;;16.48;56.81;100102.91;5051050;28;20458;-70
2022/09/29 08:37:06;;;;;;;13.40;10.95;;;;;;;16.59;56.65;100098.19;5050796;28;20060;-70
2022/09/29 08:39:34;;;;;;;14.63;11.18;;;;;;;16.73;56.97;100097.59;5050366;28;20037;-72
2022/09/29 08:42:19;;;;;;;16.55;11.23;;;;;;;16.85;56.63;100107.09;5050422;28;20491;-70
2022/09/29 08:44:57;;;;;;;14.73;11.10;;;;;;;16.95;56.41;100101.50;5050771;28;20438;-70
2022/09/29 08:47:49;;;;;;;13.82;11.13;;;;;;;17.00;56.09;100102.69;5049691;28;20379;-70
2022/09/29 08:50:28;;;;;;;16.17;10.85;;;;;;;17.07;56.18;100108.31;5050677;28;20049;-70
2022/09/29 08:52:59;;;;;;;16.42;10.65;;;;;;;17.13;55.89;100108.50;5050416;28;20049;-70
2022/09/29 08:55:42;;;;;;;13.73;10.70;;;;;;;17.22;55.93;100109.34;5051229;28;20487;-69
2022/09/29 08:58:13;;;;;;;12.88;10.27;;;;;;;17.30;55.90;100108.50;5053899;28;20056;-69
2022/09/29 09:00:47;;;;;;;12.63;10.25;;;;;;;17.37;55.94;100114.94;5054319;28;20088;-70
2022/09/29 09:03:58;;;;;;;13.20;10.35;;;;;;;17.46;55.74;100112.06;5054297;28;20037;-69
2022/09/29 09:06:28;;;;;;;12.95;10.38;;;;;;;17.63;55.44;100112.03;5049571;28;20136;-69
2022/09/29 09:09:22;;;;;;;18.45;11.93;;;;;;;17.74;55.41;100119.84;5054232;28;20041;-69
2022/09/29 09:12:03;;;;;;;13.65;10.48;;;;;;;17.77;54.89;100122.22;5054485;28;20037;-70
2022/09/29 09:14:57;;;;;;;12.07;8.93;;;;;;;17.75;54.68;100122.38;5053081;28;20564;-69
2022/09/29 09:17:54;;;;;;;14.45;10.15;;;;;;;17.87;55.13;100124.78;5053887;28;20045;-69
2022/09/29 09:20:33;;;;;;;12.13;9.43;;;;;;;18.06;54.77;100125.22;5053956;28;20110;-69
2022/09/29 09:23:26;;;;;;;13.77;9.15;;;;;;;18.16;54.78;100130.47;5053352;28;20040;-70
2022/09/29 09:26:00;;;;;;;10.98;9.10;;;;;;;18.21;54.52;100127.22;5053379;28;20083;-70
2022/09/29 09:28:33;;;;;;;11.75;10.23;;;;;;;18.31;54.42;100125.97;5053747;28;20443;-68
2022/09/29 09:31:20;;;;;;;12.73;9.38;;;;;;;18.43;54.32;100126.44;5053678;28;20060;-76
2022/09/29 09:33:57;;;;;;;11.85;9.18;;;;;;;18.52;53.78;100124.53;5053482;28;20090;-69
2022/09/29 09:36:31;;;;;;;13.15;9.43;;;;;;;18.50;53.57;100132.00;5032673;28;20496;-70
2022/09/29 09:39:15;;;;;;;12.50;10.00;;;;;;;18.48;53.69;100129.47;5033887;28;20126;-69
2022/09/29 09:41:46;;;;;;;15.68;10.30;;;;;;;18.54;53.54;100125.19;5033483;28;20041;-69
2022/09/29 09:44:33;;;;;;;11.15;9.20;;;;;;;18.61;53.16;100126.19;5036729;28;20403;-69
2022/09/29 09:47:18;;;;;;;11.93;9.93;;;;;;;18.66;53.11;100132.84;5053244;28;20052;-69
2022/09/29 09:49:51;;;;;;;16.40;10.27;;;;;;;18.74;53.08;100140.09;5053470;28;20052;-72
2022/09/29 09:52:26;;;;;;;13.70;10.18;;;;;;;18.81;53.08;100135.63;5053157;28;20029;-69
2022/09/29 09:54:58;;;;;;;;;;;;;;;18.94;53.10;100129.59;5053597;28;20106;-70
2022/09/29 09:57:38;;;;;;;10.10;7.60;;;;;;;19.11;53.05;100133.06;5053066;28;19924;-69
2022/09/29 10:00:14;;;;;;;10.05;7.80;;;;;;;19.17;52.67;100132.31;5053287;28;20064;-69
2022/09/29 10:02:55;;;;;;;12.43;7.43;;;;;;;19.22;52.48;100138.06;5052976;28;20118;-69
2022/09/29 10:05:37;;;;;;;8.43;6.80;;;;;;;19.28;52.35;100135.47;5051441;28;20049;-69
2022/09/29 10:08:24;;;;;;;8.98;7.35;;;;;;;19.40;52.10;100135.91;5051026;28;20055;-69
2022/09/29 10:10:52;;;;;;;7.20;6.22;;;;;;;19.50;51.84;100136.50;5052436;28;20495;-69
2022/09/29 10:13:30;;;;;;;8.35;6.90;;;;;;;19.59;51.85;100137.31;5052780;28;20520;-70
2022/09/29 10:16:27;;;;;;;9.70;6.57;;;;;;;19.66;51.43;100143.72;5052880;28;20404;-69
2022/09/29 10:18:54;;;;;;;9.52;7.55;;;;;;;19.73;51.24;100138.38;5040763;28;20033;-69
2022/09/29 10:21:28;;;;;;;8.70;7.07;;;;;;;19.77;51.22;100135.09;5052204;28;20053;-69
2022/09/29 10:23:59;;;;;;;8.90;7.18;;;;;;;19.82;51.02;100142.69;5052679;28;20037;-70
2022/09/29 10:26:33;;;;;;;8.13;6.65;;;;;;;19.84;50.95;100146.94;5052397;28;20057;-69
2022/09/29 10:29:21;;;;;;;7.65;6.20;;;;;;;19.81;50.53;100147.31;5050762;28;20490;-69
2022/09/29 10:32:35;;;;;;;8.27;6.65;;;;;;;19.80;50.22;100148.34;5052269;28;20103;-69
2022/09/29 10:35:32;;;;;;;6.68;5.97;;;;;;;19.86;50.26;100149.47;5052568;28;20398;-70
2022/09/29 10:38:01;;;;;;;8.43;6.70;;;;;;;19.90;50.29;100151.63;5050689;28;20045;-69
2022/09/29 10:40:28;;;;;;;7.25;5.95;;;;;;;20.02;50.34;100145.72;5051869;28;20256;-70
2022/09/29 10:42:56;;;;;;;7.65;5.40;;;;;;;20.08;50.07;100155.91;5051855;28;20106;-70
2022/09/29 10:45:28;;;;;;;6.60;5.30;;;;;;;20.19;49.97;100156.28;5052404;28;20043;-70
2022/09/29 10:47:59;;;;;;;6.32;5.50;;;;;;;20.31;49.79;100152.06;5051458;28;20060;-70
2022/09/29 10:50:46;;;;;;;6.70;5.10;;;;;;;20.37;49.22;100152.34;5032095;28;20083;-70
2022/09/29 10:53:50;;;;;;;5.57;4.75;;;;;;;20.40;48.88;100154.72;5031934;28;20052;-69
2022/09/29 10:56:21;;;;;;;5.68;5.07;;;;;;;20.50;48.83;100163.44;5051698;28;20449;-69
2022/09/29 10:58:53;;;;;;;6.30;4.65;;;;;;;20.55;48.82;100155.53;5051925;28;20376;-70
2022/09/29 11:01:33;;;;;;;7.85;5.47;;;;;;;20.68;49.03;100152.97;5051808;28;20044;-70
2022/09/29 11:04:12;;;;;;;6.72;5.32;;;;;;;20.88;48.79;100159.53;5051928;28;20517;-69
2022/09/29 11:06:40;;;;;;;7.32;5.55;;;;;;;21.02;48.45;100154.22;5051821;28;20040;-70
2022/09/29 11:09:12;;;;;;;9.60;5.30;;;;;;;21.10;47.93;100159.56;5051391;28;20388;-70
2022/09/29 11:11:53;;;;;;;6.90;5.07;;;;;;;21.15;47.96;100160.69;5051511;28;20403;-70
2022/09/29 11:14:40;;;;;;;6.55;4.82;;;;;;;21.11;47.71;100164.00;5051739;28;20499;-71
2022/09/29 11:17:22;;;;;;;7.25;4.60;;;;;;;21.06;47.51;100166.47;5051412;28;20107;-70
2022/09/29 11:19:51;;;;;;;8.52;4.75;;;;;;;21.08;47.33;100161.66;5050283;28;20041;-70
2022/09/29 11:22:20;;;;;;;6.88;4.30;;;;;;;21.08;47.16;100167.09;5051296;28;20107;-70
2022/09/29 11:25:21;;;;;;;4.55;4.03;;;;;;;21.10;46.76;100162.31;5051521;28;20041;-71
2022/09/29 11:28:10;;;;;;;4.47;4.00;;;;;;;21.16;46.97;100154.19;5051047;28;20044;-70
2022/09/29 11:31:08;;;;;;;5.32;4.10;;;;;;;21.31;46.48;100154.16;5051022;28;20040;-70
2022/09/29 11:33:34;;;;;;;5.90;4.22;;;;;;;21.40;46.16;100154.84;5051073;28;20052;-70
2022/09/29 11:36:22;;;;;;;6.85;4.13;;;;;;;21.38;46.04;100160.53;5050568;28;20447;-70
2022/09/29 11:38:55;;;;;;;5.50;4.00;;;;;;;21.36;45.99;100162.59;5050684;28;20040;-70
2022/09/29 11:41:49;;;;;;;5.03;4.53;;;;;;;21.36;46.49;100162.59;5051064;28;20507;-70
2022/09/29 11:44:48;;;;;;;6.30;4.55;;;;;;;21.25;46.11;100168.59;5051191;28;20561;-70
2022/09/29 11:47:52;;;;;;;5.18;4.20;;;;;;;21.23;46.49;100166.03;5037450;28;20135;-71
2022/09/29 11:50:22;;;;;;;4.88;4.20;;;;;;;21.28;46.41;100173.66;5050863;28;20048;-70
2022/09/29 11:53:07;;;;;;;5.47;4.45;;;;;;;21.31;45.89;100170.53;5049629;28;20045;-70
2022/09/29 11:56:10;;;;;;;6.17;4.37;;;;;;;21.28;45.98;100168.19;5031010;28;20447;-70